Cascade, MT

4:52 AM MDT on September 17, 2014 (GMT -0600)
Trout Montana Fly Shop, Cascade, MT | Change Station
CLOSE
Current Station
Personal Weather Station
Location: Cascade, MT
Elevation: 3376 ft
Nearby Weather Stations

Elev 3376 ft 47.27 °N, 111.70 °W | Updated 31 seconds ago

Partly Cloudy
Partly Cloudy
55.5 °F
Feels Like 55.5 °F
N
1.0
Wind Variable Wind from NNE
Gusts 4.0 mph

Today
High -- | Low -- °F
--% Chance of Precip.
Yesterday
High -- | Low -- °F
Precip. -- in
7:07 AM 7:34 PM
Last Quarter, 37% visible
Pressure 29.83 in
Visibility 10.0 miles
Clouds Few 4800 ft
Scattered Clouds 11000 ft
Dew Point 46 °F
Humidity 71%
Rainfall 0.00 in
Snow Depth 0 in , 0 in , 0 in
UV 0 out of 12
Pollen 6.90 out of 12
Air Quality Not available.
Flu Activity Not available.
METAR KGTF 170953Z 20004KT 10SM FEW048 SCT110 13/08 A2991 RMK AO2 SLP102 T01280083 $

More Conditions Fewer Conditions

Pressure 29.83 in
Visibility 10.0 miles
Clouds Few 4800 ft
Scattered Clouds 11000 ft
Dew Point 46 °F
Humidity 71%
Rainfall 0.00 in
Snow Depth 0 in , 0 in , 0 in
UV 0 out of 12
Pollen 6.90 out of 12
Air Quality Not available.
Flu Activity Not available.
METAR KGTF 170953Z 20004KT 10SM FEW048 SCT110 13/08 A2991 RMK AO2 SLP102 T01280083 $

More Conditions Fewer Conditions

10-Day Weather Forecast

Almanac

Astronomy

Sep. 17, 2014 Rise Set
Actual Time 7:07 AM MDT 7:34 PM MDT
Civil Twilight 6:36 AM MDT 8:05 PM MDT
Nautical Twilight 6:00 AM MDT 8:41 PM MDT
Astronomical Twilight 5:22 AM MDT 9:18 PM MDT
Moon 12:53 AM MDT 4:02 PM MDT
Length of Visible Light 13h 28m
Length of Day
12h 27m
Tomorrow will be 3m 21s shorter.
Last Quarter, 37% of the Moon is Illuminated
Today
Last Quarter
Sep 24
New
Oct 1
First Quarter
Oct 8
Full
Oct 15
Last Quarter

Today's Extremes

State Highs State Lows

Community

WunderPhotos

Upload Photos

1,753,993 photos uploaded!

Nearby

Snow Depth

Station Depth Elevation
Northeast Entrance 0 in 7350 ft
Monument Peak 0 in 8850 ft
Kraft Creek 0 in 4750 ft
Nez Perce Camp 0 in 5650 ft
Short Creek 0 in 7000 ft

Earthquake Activity

City Distance Mag. Time & Date
No recent earthquake activity has been reported nearby.
Minimum magnitude displayed is 2.5.

Coastal Water Temperatures

Place Temperature
No Stations Reporting

Nearby Weather Stations